ADDS METAR Data INFO
IDs: Format: Raw Decoded Include TAF

Data at: 1907 UTC 21 Apr 2018

KDAL 211853Z 15011KT 6SM -RA BR BKN007 OVC015 17/16 A2994 RMK AO2 RAB03 SLP136 P0002 T01670156
KDAL 211829Z 16008KT 3SM -RA BR BKN007 OVC014 16/15 A2996 RMK AO2 RAB03 P0002 T01610150
KDAL 211813Z 16011KT 2 1/2SM -RA BR SCT007 BKN012 OVC020 16/15 A2996 RMK AO2 RAB03 P0001 T01610150
KDAL 211803Z 16010KT 6SM -RA BR FEW008 BKN012 OVC020 16/14 A2996 RMK AO2 RAB03 P0000 T01610144
KDAL 211753Z 17010KT 9SM SCT010 OVC020 16/14 A2997 RMK AO2 RAE23 SLP144 P0001 60002 T01610144 10183 20133 50000
KDAL 211706Z 18010KT 4SM -RA BR FEW010 BKN020 OVC055 16/14 A2997 RMK AO2 P0001 T01560139
KDAL 211653Z 16011KT 4SM -RA BR SCT020 BKN035 OVC055 16/13 A2997 RMK AO2 PK WND 15026/1608 TSB16E52 SLP145 TS MOVD NE P0001 T01560133
KDAL 211616Z 15016G26KT 10SM -TSRA BKN022 OVC036CB 16/12 A2997 RMK AO2 PK WND 15026/1608 TSB16 OCNL LTGIC TS SE-S MOV NE P0000 T01610117
KDAL 211553Z 14014KT 10SM -RA BKN022 OVC036 17/11 A2996 RMK AO2 PK WND 15027/1531 RAB46 SLP143 P0000 T01670111
KDAL 211453Z 14020G29KT 10SM BKN026 BKN045 BKN240 17/11 A2996 RMK AO2 PK WND 14029/1359 SLP143 T01720106 58011
KDAL 211449Z 14022G29KT 10SM BKN026 BKN045 BKN240 17/11 A2997 RMK AO2 PK WND 14029/1359
KDAL 211353Z 14018KT 10SM SCT050 BKN110 BKN250 17/09 A2998 RMK AO2 SLP149 T01670094
KDAL 211253Z 13018KT 10SM FEW060 BKN100 BKN250 14/08 A2999 RMK AO2 PK WND 13026/1241 SLP153 T01440078
KDAL 211153Z 12014KT 10SM FEW060 SCT250 13/08 A3000 RMK AO2 SLP155 T01330083 10150 20133 58024
KDAL 211053Z 13012KT 10SM FEW046 FEW250 13/08 A3002 RMK AO2 SLP163 T01330083
KDAL 210953Z 12008KT 10SM BKN046 14/08 A3006 RMK AO2 SLP174 T01440083
KDAL 210853Z 15007KT 10SM BKN050 OVC250 15/08 A3007 RMK AO2 SLP179 T01500083 55005
KDAL 210753Z 13009KT 10SM BKN048 OVC250 15/08 A3007 RMK AO2 SLP178 T01500083
KDAL 210653Z 14009KT 10SM BKN046 BKN250 15/08 A3009 RMK AO2 SLP184 T01500078
KDAL 210553Z 13012KT 10SM FEW046 SCT250 15/08 A3009 RMK AO2 SLP184 T01500078 10200 20150 402170106 50005
KDAL 210453Z 14012KT 10SM FEW046 FEW250 16/07 A3009 RMK AO2 SLP187 T01560072
KDAL 210353Z 13013KT 10SM FEW250 17/07 A3007 RMK AO2 SLP179 T01670072
KDAL 210253Z 13013KT 10SM FEW250 17/07 A3007 RMK AO2 SLP179 T01720067 55002
KDAL 210153Z 13013KT 10SM FEW180 SCT250 18/06 A3006 RMK AO2 SLP176 T01780061
KDAL 210053Z 13012KT 10SM FEW180 FEW250 18/06 A3007 RMK AO2 SLP178 T01830056
KDAL 202353Z 16016KT 10SM FEW250 20/06 A3008 RMK AO2 SLP181 T02000056 10217 20172 56014
KDAL 202253Z 13015G21KT 10SM FEW250 21/05 A3009 RMK AO2 SLP184 T02110050
KDAL 202153Z 16010KT 10SM FEW250 21/05 A3010 RMK AO2 SLP191 T02110050
KDAL 202053Z 11013G20KT 10SM FEW250 21/04 A3012 RMK AO2 SLP195 T02060044 58048
KDAL 201953Z 14014G20KT 10SM FEW150 FEW250 20/04 A3018 RMK AO2 SLP215 VIRGA NE T02000044
KDAL 201853Z 11013G17KT 10SM FEW085 SCT150 BKN250 18/04 A3021 RMK AO2 SLP227 VIRGA ALQDS T01780039
KDAL 201753Z COR 09010KT 10SM FEW085 SCT170 SCT250 18/03 A3026 RMK AO2 SLP244 VIRGA E-S-W-NW T01780033 10183 20106 58014
KDAL 201653Z 09010KT 10SM FEW080 SCT170 SCT250 16/02 A3030 RMK AO2 SLP255 T01610017
KDAL 201553Z 13014KT 10SM FEW075 FEW180 FEW250 15/02 A3031 RMK AO2 SLP260 T01500017
KDAL 201453Z 10013KT 10SM FEW040 FEW180 FEW250 13/02 A3030 RMK AO2 PK WND 11026/1357 SLP258 T01330017 50012
KDAL 201353Z 10017G26KT 10SM FEW180 BKN250 11/01 A3030 RMK AO2 PK WND 11026/1349 SLP260 T01110011
KDAL 201253Z 11012KT 10SM FEW180 BKN250 11/03 A3029 RMK AO2 SLP254 T01060033
KDAL 201153Z 11012G22KT 10SM FEW150 BKN250 11/03 A3027 RMK AO2 SLP246 T01060033 10139 20106 53004
KDAL 201053Z 11012KT 10SM BKN250 11/04 A3027 RMK AO2 SLP246 T01110044
KDAL 200953Z 11012G19KT 10SM BKN250 13/04 A3025 RMK AO2 SLP241 T01280044
KDAL 200853Z 09010KT 10SM BKN250 12/04 A3025 RMK AO2 SLP242 T01220044 55001
KDAL 200753Z 07006KT 10SM SCT250 12/05 A3025 RMK AO2 SLP241 T01170050